sensor_id;sensor_type;location;lat;lon;timestamp;pressure;altitude;pressure_sealevel;temperature;humidity
19811;BME280;10065;49.632;8.346;2023-05-23T00:00:37;100421.34;;;21.50;69.37
19811;BME280;10065;49.632;8.346;2023-05-23T00:03:05;100424.03;;;21.50;69.42
19811;BME280;10065;49.632;8.346;2023-05-23T00:05:34;100418.03;;;21.48;69.21
19811;BME280;10065;49.632;8.346;2023-05-23T00:08:02;100410.22;;;21.39;69.66
19811;BME280;10065;49.632;8.346;2023-05-23T00:10:31;100413.53;;;21.42;69.49
19811;BME280;10065;49.632;8.346;2023-05-23T00:13:00;100402.75;;;21.42;69.47
19811;BME280;10065;49.632;8.346;2023-05-23T00:15:28;100407.97;;;21.36;69.37
19811;BME280;10065;49.632;8.346;2023-05-23T00:17:56;100410.06;;;21.34;69.59
19811;BME280;10065;49.632;8.346;2023-05-23T00:20:25;100410.50;;;21.31;69.54
19811;BME280;10065;49.632;8.346;2023-05-23T00:22:54;100407.59;;;21.33;69.46
19811;BME280;10065;49.632;8.346;2023-05-23T00:25:24;100412.56;;;21.29;69.84
19811;BME280;10065;49.632;8.346;2023-05-23T00:28:01;100410.34;;;21.26;69.58
19811;BME280;10065;49.632;8.346;2023-05-23T00:30:30;100415.28;;;21.29;69.67
19811;BME280;10065;49.632;8.346;2023-05-23T00:32:58;100421.47;;;21.36;69.16
19811;BME280;10065;49.632;8.346;2023-05-23T00:35:26;100413.66;;;21.28;69.77
19811;BME280;10065;49.632;8.346;2023-05-23T00:37:54;100413.03;;;21.26;69.60
19811;BME280;10065;49.632;8.346;2023-05-23T00:40:22;100413.66;;;21.28;69.61
19811;BME280;10065;49.632;8.346;2023-05-23T00:42:50;100413.47;;;21.23;69.50
19811;BME280;10065;49.632;8.346;2023-05-23T00:45:19;100409.50;;;21.26;69.35
19811;BME280;10065;49.632;8.346;2023-05-23T00:47:48;100410.16;;;21.21;69.67
19811;BME280;10065;49.632;8.346;2023-05-23T00:50:17;100409.56;;;21.19;69.70
19811;BME280;10065;49.632;8.346;2023-05-23T00:52:46;100407.91;;;21.18;70.02
19811;BME280;10065;49.632;8.346;2023-05-23T00:55:14;100413.69;;;21.15;70.11
19811;BME280;10065;49.632;8.346;2023-05-23T00:57:42;100414.72;;;21.21;69.57
19811;BME280;10065;49.632;8.346;2023-05-23T01:00:11;100418.94;;;21.10;70.11
19811;BME280;10065;49.632;8.346;2023-05-23T01:02:43;100418.94;;;21.10;70.22
19811;BME280;10065;49.632;8.346;2023-05-23T01:05:13;100424.69;;;21.14;70.05
19811;BME280;10065;49.632;8.346;2023-05-23T01:07:43;100419.75;;;21.11;70.10
19811;BME280;10065;49.632;8.346;2023-05-23T01:10:12;100420.00;;;21.02;70.57
19811;BME280;10065;49.632;8.346;2023-05-23T01:12:50;100427.88;;;21.04;70.41
19811;BME280;10065;49.632;8.346;2023-05-23T01:15:22;100419.78;;;21.04;70.64
19811;BME280;10065;49.632;8.346;2023-05-23T01:17:58;100421.28;;;21.00;70.48
19811;BME280;10065;49.632;8.346;2023-05-23T01:20:31;100421.50;;;20.98;70.74
19811;BME280;10065;49.632;8.346;2023-05-23T01:26:32;100418.03;;;20.91;70.61
19811;BME280;10065;49.632;8.346;2023-05-23T01:29:13;100419.44;;;20.94;70.47
19811;BME280;10065;49.632;8.346;2023-05-23T01:31:45;100429.97;;;21.02;70.22
19811;BME280;10065;49.632;8.346;2023-05-23T01:34:13;100425.63;;;21.01;69.97
19811;BME280;10065;49.632;8.346;2023-05-23T01:36:42;100424.34;;;21.03;69.95
19811;BME280;10065;49.632;8.346;2023-05-23T01:39:10;100435.19;;;20.97;70.13
19811;BME280;10065;49.632;8.346;2023-05-23T01:41:38;100429.97;;;21.02;70.05
19811;BME280;10065;49.632;8.346;2023-05-23T01:44:06;100442.22;;;20.98;70.06
19811;BME280;10065;49.632;8.346;2023-05-23T01:46:36;100440.16;;;21.00;69.76
19811;BME280;10065;49.632;8.346;2023-05-23T01:49:07;100455.31;;;20.94;70.22
19811;BME280;10065;49.632;8.346;2023-05-23T01:51:38;100440.41;;;20.92;70.42
19811;BME280;10065;49.632;8.346;2023-05-23T01:54:08;100440.16;;;20.93;70.07
19811;BME280;10065;49.632;8.346;2023-05-23T01:56:36;100443.25;;;20.97;70.04
19811;BME280;10065;49.632;8.346;2023-05-23T01:59:04;100448.91;;;20.89;70.09
19811;BME280;10065;49.632;8.346;2023-05-23T02:01:32;100447.25;;;20.88;70.39
19811;BME280;10065;49.632;8.346;2023-05-23T02:04:02;100446.84;;;20.91;69.95
19811;BME280;10065;49.632;8.346;2023-05-23T02:06:30;100446.84;;;20.91;70.10
19811;BME280;10065;49.632;8.346;2023-05-23T02:08:58;100443.13;;;20.85;70.50
19811;BME280;10065;49.632;8.346;2023-05-23T02:11:26;100437.34;;;20.82;70.52
19811;BME280;10065;49.632;8.346;2023-05-23T02:13:54;100445.44;;;20.82;70.53
19811;BME280;10065;49.632;8.346;2023-05-23T02:16:22;100445.66;;;20.80;70.91
19811;BME280;10065;49.632;8.346;2023-05-23T02:18:51;100448.53;;;20.79;70.83
19811;BME280;10065;49.632;8.346;2023-05-23T02:21:23;100458.13;;;20.75;70.81
19811;BME280;10065;49.632;8.346;2023-05-23T02:23:51;100459.78;;;20.76;70.93
19811;BME280;10065;49.632;8.346;2023-05-23T02:26:19;100461.03;;;20.73;70.79
19811;BME280;10065;49.632;8.346;2023-05-23T02:28:47;100473.47;;;20.74;70.53
19811;BME280;10065;49.632;8.346;2023-05-23T02:31:14;100473.88;;;20.71;70.82
19811;BME280;10065;49.632;8.346;2023-05-23T02:33:43;100474.28;;;20.75;70.62
19811;BME280;10065;49.632;8.346;2023-05-23T02:36:11;100478.44;;;20.71;70.55
19811;BME280;10065;49.632;8.346;2023-05-23T02:38:40;100480.50;;;20.69;70.62
19811;BME280;10065;49.632;8.346;2023-05-23T02:41:08;100487.13;;;20.73;70.28
19811;BME280;10065;49.632;8.346;2023-05-23T02:43:36;100496.44;;;20.77;69.89
19811;BME280;10065;49.632;8.346;2023-05-23T02:46:04;100498.31;;;20.76;69.54
19811;BME280;10065;49.632;8.346;2023-05-23T02:48:32;100497.31;;;20.71;69.74
19811;BME280;10065;49.632;8.346;2023-05-23T02:51:00;100511.81;;;20.70;69.70
19811;BME280;10065;49.632;8.346;2023-05-23T02:53:28;100516.16;;;20.71;69.25
19811;BME280;10065;49.632;8.346;2023-05-23T02:55:57;100514.72;;;20.68;69.10
19811;BME280;10065;49.632;8.346;2023-05-23T02:58:25;100511.63;;;20.64;69.18
19811;BME280;10065;49.632;8.346;2023-05-23T03:00:52;100517.84;;;20.65;68.91
19811;BME280;10065;49.632;8.346;2023-05-23T03:03:21;100520.53;;;20.65;69.11
19811;BME280;10065;49.632;8.346;2023-05-23T03:05:49;100514.94;;;20.60;68.56
19811;BME280;10065;49.632;8.346;2023-05-23T03:08:17;100517.06;;;20.58;68.77
19811;BME280;10065;49.632;8.346;2023-05-23T03:10:44;100519.94;;;20.56;68.85
19811;BME280;10065;49.632;8.346;2023-05-23T03:13:14;100518.88;;;20.64;68.26
19811;BME280;10065;49.632;8.346;2023-05-23T03:15:41;100522.03;;;20.54;68.24
19811;BME280;10065;49.632;8.346;2023-05-23T03:18:09;100514.16;;;20.53;67.99
19811;BME280;10065;49.632;8.346;2023-05-23T03:20:38;100525.34;;;20.56;68.00
19811;BME280;10065;49.632;8.346;2023-05-23T03:23:06;100522.56;;;21.27;64.33
19811;BME280;10065;49.632;8.346;2023-05-23T03:25:34;100517.53;;;20.93;65.74
19811;BME280;10065;49.632;8.346;2023-05-23T03:28:01;100521.91;;;20.87;66.25
19811;BME280;10065;49.632;8.346;2023-05-23T03:30:31;100522.09;;;20.86;66.40
19811;BME280;10065;49.632;8.346;2023-05-23T03:32:58;100522.34;;;20.78;66.31
19811;BME280;10065;49.632;8.346;2023-05-23T03:35:27;100529.81;;;20.82;66.02
19811;BME280;10065;49.632;8.346;2023-05-23T03:37:55;100525.25;;;20.83;65.69
19811;BME280;10065;49.632;8.346;2023-05-23T03:40:22;100535.22;;;20.76;65.81
19811;BME280;10065;49.632;8.346;2023-05-23T03:43:00;100528.81;;;20.70;65.35
19811;BME280;10065;49.632;8.346;2023-05-23T03:45:31;100535.44;;;20.67;65.40
19811;BME280;10065;49.632;8.346;2023-05-23T03:47:59;100537.31;;;20.74;65.02
19811;BME280;10065;49.632;8.346;2023-05-23T03:50:27;100535.44;;;20.67;65.41
19811;BME280;10065;49.632;8.346;2023-05-23T03:52:55;100536.28;;;20.61;65.07
19811;BME280;10065;49.632;8.346;2023-05-23T03:55:23;100537.38;;;20.47;65.40
19811;BME280;10065;49.632;8.346;2023-05-23T03:57:51;100531.56;;;20.50;64.48
19811;BME280;10065;49.632;8.346;2023-05-23T04:00:19;100533.66;;;20.48;64.76
19811;BME280;10065;49.632;8.346;2023-05-23T04:02:48;100530.31;;;20.33;64.85
19811;BME280;10065;49.632;8.346;2023-05-23T04:05:17;100538.22;;;20.28;65.18
19811;BME280;10065;49.632;8.346;2023-05-23T04:07:45;100534.03;;;20.32;65.08
19811;BME280;10065;49.632;8.346;2023-05-23T04:10:13;100536.75;;;20.25;64.83
19811;BME280;10065;49.632;8.346;2023-05-23T04:12:41;100535.31;;;20.29;64.74
19811;BME280;10065;49.632;8.346;2023-05-23T04:15:09;100546.72;;;20.12;65.41
19811;BME280;10065;49.632;8.346;2023-05-23T04:17:37;100541.31;;;20.18;65.24
19811;BME280;10065;49.632;8.346;2023-05-23T04:20:08;100548.97;;;20.15;65.16
19811;BME280;10065;49.632;8.346;2023-05-23T04:22:36;100551.47;;;20.16;65.29
19811;BME280;10065;49.632;8.346;2023-05-23T04:25:04;100554.78;;;20.18;65.06
19811;BME280;10065;49.632;8.346;2023-05-23T04:27:32;100562.66;;;20.20;64.73
19811;BME280;10065;49.632;8.346;2023-05-23T04:30:04;100560.78;;;20.07;65.19
19811;BME280;10065;49.632;8.346;2023-05-23T04:32:34;100563.09;;;20.10;65.20
19811;BME280;10065;49.632;8.346;2023-05-23T04:35:03;100569.28;;;20.17;64.90
19811;BME280;10065;49.632;8.346;2023-05-23T04:37:32;100569.69;;;20.08;64.65
19811;BME280;10065;49.632;8.346;2023-05-23T04:40:00;100565.16;;;20.02;64.84
19811;BME280;10065;49.632;8.346;2023-05-23T04:42:29;100573.84;;;20.04;64.71
19811;BME280;10065;49.632;8.346;2023-05-23T04:44:58;100580.06;;;20.04;64.79
19811;BME280;10065;49.632;8.346;2023-05-23T04:47:27;100575.31;;;20.13;64.20
19811;BME280;10065;49.632;8.346;2023-05-23T04:50:03;100581.72;;;20.12;64.46
19811;BME280;10065;49.632;8.346;2023-05-23T04:52:32;100580.03;;;19.98;64.43
19811;BME280;10065;49.632;8.346;2023-05-23T04:55:00;100583.38;;;20.00;63.76
19811;BME280;10065;49.632;8.346;2023-05-23T04:57:28;100590.41;;;19.87;64.33
19811;BME280;10065;49.632;8.346;2023-05-23T04:59:56;100585.44;;;19.98;63.46
19811;BME280;10065;49.632;8.346;2023-05-23T05:02:24;100586.47;;;19.90;63.58
19811;BME280;10065;49.632;8.346;2023-05-23T05:04:52;100596.19;;;19.98;63.14
19811;BME280;10065;49.632;8.346;2023-05-23T05:07:20;100601.56;;;19.91;63.08
19811;BME280;10065;49.632;8.346;2023-05-23T05:09:49;100598.88;;;19.91;62.67
19811;BME280;10065;49.632;8.346;2023-05-23T05:12:17;100594.97;;;19.94;62.01
19811;BME280;10065;49.632;8.346;2023-05-23T05:14:44;100605.31;;;19.90;62.24
19811;BME280;10065;49.632;8.346;2023-05-23T05:17:12;100612.97;;;19.86;62.01
19811;BME280;10065;49.632;8.346;2023-05-23T05:19:40;100617.72;;;19.98;61.39
19811;BME280;10065;49.632;8.346;2023-05-23T05:22:08;100614.00;;;19.92;61.32
19811;BME280;10065;49.632;8.346;2023-05-23T05:24:35;100624.34;;;19.88;61.61
19811;BME280;10065;49.632;8.346;2023-05-23T05:27:05;100628.28;;;19.86;61.88
19811;BME280;10065;49.632;8.346;2023-05-23T05:29:35;100630.16;;;19.85;61.39
19811;BME280;10065;49.632;8.346;2023-05-23T05:32:03;100628.88;;;19.81;61.61
19811;BME280;10065;49.632;8.346;2023-05-23T05:34:31;100636.38;;;19.86;61.40
19811;BME280;10065;49.632;8.346;2023-05-23T05:36:58;100637.38;;;19.78;61.57
19811;BME280;10065;49.632;8.346;2023-05-23T05:39:26;100641.31;;;19.82;61.48
19811;BME280;10065;49.632;8.346;2023-05-23T05:41:54;100640.91;;;19.92;61.57
19811;BME280;10065;49.632;8.346;2023-05-23T05:44:23;100642.78;;;19.91;61.29
19811;BME280;10065;49.632;8.346;2023-05-23T05:46:52;100637.78;;;19.88;61.38
19811;BME280;10065;49.632;8.346;2023-05-23T05:49:20;100645.47;;;19.91;61.39
19811;BME280;10065;49.632;8.346;2023-05-23T05:51:48;100651.06;;;19.90;61.61
19811;BME280;10065;49.632;8.346;2023-05-23T05:54:17;100645.91;;;20.02;60.99
19811;BME280;10065;49.632;8.346;2023-05-23T05:56:46;100655.00;;;20.01;60.95
19811;BME280;10065;49.632;8.346;2023-05-23T05:59:13;100657.06;;;19.99;61.45
19811;BME280;10065;49.632;8.346;2023-05-23T06:01:43;100662.88;;;20.02;61.08
19811;BME280;10065;49.632;8.346;2023-05-23T06:04:11;100663.28;;;19.99;61.02
19811;BME280;10065;49.632;8.346;2023-05-23T06:06:39;100657.69;;;20.01;61.47
19811;BME280;10065;49.632;8.346;2023-05-23T06:09:07;100665.38;;;20.04;61.36
19811;BME280;10065;49.632;8.346;2023-05-23T06:11:36;100664.13;;;20.06;60.95
19811;BME280;10065;49.632;8.346;2023-05-23T06:14:06;100665.19;;;20.12;61.18
19811;BME280;10065;49.632;8.346;2023-05-23T06:16:35;100661.22;;;20.01;61.47
19811;BME280;10065;49.632;8.346;2023-05-23T06:19:04;100665.97;;;20.06;61.34
19811;BME280;10065;49.632;8.346;2023-05-23T06:21:32;100670.13;;;20.15;60.73
19811;BME280;10065;49.632;8.346;2023-05-23T06:24:00;100673.88;;;20.14;61.28
19811;BME280;10065;49.632;8.346;2023-05-23T06:26:27;100670.97;;;20.02;61.55
19811;BME280;10065;49.632;8.346;2023-05-23T06:28:55;100671.16;;;20.01;61.65
19811;BME280;10065;49.632;8.346;2023-05-23T06:31:23;100678.63;;;20.05;61.48
19811;BME280;10065;49.632;8.346;2023-05-23T06:33:51;100679.47;;;20.12;61.25
19811;BME280;10065;49.632;8.346;2023-05-23T06:36:21;100676.97;;;20.11;61.53
19811;BME280;10065;49.632;8.346;2023-05-23T06:38:48;100680.28;;;20.19;60.91
19811;BME280;10065;49.632;8.346;2023-05-23T06:41:16;100694.78;;;20.18;60.92
19811;BME280;10065;49.632;8.346;2023-05-23T06:43:44;100686.91;;;20.17;61.23
19811;BME280;10065;49.632;8.346;2023-05-23T06:46:12;100692.28;;;20.23;61.12
19811;BME280;10065;49.632;8.346;2023-05-23T06:48:40;100697.47;;;20.25;61.17
19811;BME280;10065;49.632;8.346;2023-05-23T06:51:07;100702.66;;;20.20;61.20
19811;BME280;10065;49.632;8.346;2023-05-23T06:53:37;100703.69;;;20.19;61.25
19811;BME280;10065;49.632;8.346;2023-05-23T06:56:05;100703.91;;;20.11;61.43
19811;BME280;10065;49.632;8.346;2023-05-23T06:58:32;100709.91;;;20.13;61.17
19811;BME280;10065;49.632;8.346;2023-05-23T07:01:01;100716.75;;;20.22;60.87
19811;BME280;10065;49.632;8.346;2023-05-23T07:03:28;100717.16;;;20.19;60.71
19811;BME280;10065;49.632;8.346;2023-05-23T07:05:56;100712.59;;;20.19;60.54
19811;BME280;10065;49.632;8.346;2023-05-23T07:08:24;100718.19;;;20.18;60.65
19811;BME280;10065;49.632;8.346;2023-05-23T07:10:53;100725.44;;;20.11;61.11
19811;BME280;10065;49.632;8.346;2023-05-23T07:13:21;100721.50;;;20.13;60.75
19811;BME280;10065;49.632;8.346;2023-05-23T07:15:49;100728.31;;;20.09;60.18
19811;BME280;10065;49.632;8.346;2023-05-23T07:18:16;100730.00;;;20.17;59.13
19811;BME280;10065;49.632;8.346;2023-05-23T07:20:44;100726.47;;;20.16;58.73
19811;BME280;10065;49.632;8.346;2023-05-23T07:23:12;100724.19;;;20.13;58.95
19811;BME280;10065;49.632;8.346;2023-05-23T07:25:40;100725.00;;;20.07;59.02
19811;BME280;10065;49.632;8.346;2023-05-23T07:28:28;100725.88;;;20.21;58.33
19811;BME280;10065;49.632;8.346;2023-05-23T07:30:56;100728.97;;;20.24;57.18
19811;BME280;10065;49.632;8.346;2023-05-23T07:33:24;100735.63;;;20.28;57.04
19811;BME280;10065;49.632;8.346;2023-05-23T07:35:52;100732.47;;;20.25;57.43
19811;BME280;10065;49.632;8.346;2023-05-23T07:38:19;100728.75;;;20.19;57.89
19811;BME280;10065;49.632;8.346;2023-05-23T07:40:47;100736.22;;;20.24;57.66
19811;BME280;10065;49.632;8.346;2023-05-23T07:43:33;100741.19;;;20.14;57.37
19811;BME280;10065;49.632;8.346;2023-05-23T07:46:01;100743.88;;;20.14;57.53
19811;BME280;10065;49.632;8.346;2023-05-23T07:48:29;100738.69;;;20.12;57.74
19811;BME280;10065;49.632;8.346;2023-05-23T07:50:57;100747.38;;;20.14;57.33
19811;BME280;10065;49.632;8.346;2023-05-23T07:53:25;100737.03;;;20.11;57.69
19811;BME280;10065;49.632;8.346;2023-05-23T07:55:53;100739.53;;;20.19;57.03
19811;BME280;10065;49.632;8.346;2023-05-23T07:58:21;100739.94;;;20.16;57.72
19811;BME280;10065;49.632;8.346;2023-05-23T08:00:50;100745.31;;;20.23;56.90
19811;BME280;10065;49.632;8.346;2023-05-23T08:03:18;100744.91;;;20.13;57.80
19811;BME280;10065;49.632;8.346;2023-05-23T08:05:46;100744.53;;;20.22;57.25
19811;BME280;10065;49.632;8.346;2023-05-23T08:08:14;100746.97;;;20.17;57.44
19811;BME280;10065;49.632;8.346;2023-05-23T08:10:42;100750.50;;;20.18;57.66
19811;BME280;10065;49.632;8.346;2023-05-23T08:13:11;100750.69;;;20.23;57.36
19811;BME280;10065;49.632;8.346;2023-05-23T08:15:39;100749.06;;;20.22;57.72
19811;BME280;10065;49.632;8.346;2023-05-23T08:18:08;100737.06;;;20.31;57.38
19811;BME280;10065;49.632;8.346;2023-05-23T08:20:36;100726.72;;;20.41;57.95
19811;BME280;10065;49.632;8.346;2023-05-23T08:23:04;100730.91;;;20.63;57.59
19811;BME280;10065;49.632;8.346;2023-05-23T08:25:32;100735.03;;;20.86;56.98
19811;BME280;10065;49.632;8.346;2023-05-23T08:28:00;100727.53;;;21.14;56.21
19811;BME280;10065;49.632;8.346;2023-05-23T08:30:29;100731.25;;;21.33;55.58
19811;BME280;10065;49.632;8.346;2023-05-23T08:32:59;100728.91;;;21.50;55.15
19811;BME280;10065;49.632;8.346;2023-05-23T08:35:31;100735.88;;;21.70;54.88
19811;BME280;10065;49.632;8.346;2023-05-23T08:38:04;100731.44;;;21.83;54.42
19811;BME280;10065;49.632;8.346;2023-05-23T08:40:35;100736.84;;;21.89;54.07
19811;BME280;10065;49.632;8.346;2023-05-23T08:43:03;100741.22;;;21.84;53.76
19811;BME280;10065;49.632;8.346;2023-05-23T08:45:31;100736.47;;;21.79;53.52
19811;BME280;10065;49.632;8.346;2023-05-23T08:48:00;100740.25;;;21.71;53.77
19811;BME280;10065;49.632;8.346;2023-05-23T08:50:29;100739.59;;;21.76;53.79
19811;BME280;10065;49.632;8.346;2023-05-23T08:52:58;100751.00;;;21.78;53.85
19811;BME280;10065;49.632;8.346;2023-05-23T08:55:27;100746.28;;;21.67;54.37
19811;BME280;10065;49.632;8.346;2023-05-23T08:57:57;100750.25;;;21.58;54.72
19811;BME280;10065;49.632;8.346;2023-05-23T09:00:26;100749.44;;;21.51;54.70
19811;BME280;10065;49.632;8.346;2023-05-23T09:02:55;100758.00;;;21.34;55.01
19811;BME280;10065;49.632;8.346;2023-05-23T09:05:25;100754.09;;;21.24;55.23
19811;BME280;10065;49.632;8.346;2023-05-23T09:07:53;100751.22;;;21.19;55.58
19811;BME280;10065;49.632;8.346;2023-05-23T09:10:23;100753.41;;;21.42;55.59
19811;BME280;10065;49.632;8.346;2023-05-23T09:12:55;100760.38;;;21.69;54.82
19811;BME280;10065;49.632;8.346;2023-05-23T09:15:23;100762.97;;;21.95;54.42
19811;BME280;10065;49.632;8.346;2023-05-23T09:17:52;100746.66;;;22.22;54.35
19811;BME280;10065;49.632;8.346;2023-05-23T09:20:20;100749.81;;;22.43;53.40
19811;BME280;10065;49.632;8.346;2023-05-23T09:22:48;100754.72;;;22.53;53.03
19811;BME280;10065;49.632;8.346;2023-05-23T09:25:16;100748.56;;;22.46;53.31
19811;BME280;10065;49.632;8.346;2023-05-23T09:27:51;100757.63;;;22.27;53.79
19811;BME280;10065;49.632;8.346;2023-05-23T09:30:19;100759.78;;;22.11;53.72
19811;BME280;10065;49.632;8.346;2023-05-23T09:32:57;100759.66;;;21.93;54.30
19811;BME280;10065;49.632;8.346;2023-05-23T09:35:30;100757.03;;;21.80;54.45
19811;BME280;10065;49.632;8.346;2023-05-23T09:37:58;100766.19;;;21.66;54.92
19811;BME280;10065;49.632;8.346;2023-05-23T09:40:30;100758.78;;;21.48;55.30
19811;BME280;10065;49.632;8.346;2023-05-23T09:43:02;100759.66;;;21.35;55.50
19811;BME280;10065;49.632;8.346;2023-05-23T09:45:31;100762.38;;;21.29;56.08
19811;BME280;10065;49.632;8.346;2023-05-23T09:48:00;100763.00;;;21.24;56.09
19811;BME280;10065;49.632;8.346;2023-05-23T09:50:30;100760.72;;;21.28;56.19
19811;BME280;10065;49.632;8.346;2023-05-23T09:52:59;100766.75;;;21.23;56.34
19811;BME280;10065;49.632;8.346;2023-05-23T09:55:27;100758.00;;;21.15;56.25
19811;BME280;10065;49.632;8.346;2023-05-23T09:57:57;100766.56;;;21.18;56.41
19811;BME280;10065;49.632;8.346;2023-05-23T10:00:27;100764.47;;;21.20;56.38
19811;BME280;10065;49.632;8.346;2023-05-23T10:03:01;100759.50;;;21.17;56.41
19811;BME280;10065;49.632;8.346;2023-05-23T10:05:36;100758.88;;;21.09;56.50
19811;BME280;10065;49.632;8.346;2023-05-23T10:08:08;100763.22;;;21.10;56.60
19811;BME280;10065;49.632;8.346;2023-05-23T10:13:50;100761.75;;;21.20;56.29
19811;BME280;10065;49.632;8.346;2023-05-23T10:16:33;100765.06;;;21.22;56.52
19811;BME280;10065;49.632;8.346;2023-05-23T10:19:08;100763.19;;;21.29;55.91
19811;BME280;10065;49.632;8.346;2023-05-23T10:21:43;100769.66;;;21.28;56.00
19811;BME280;10065;49.632;8.346;2023-05-23T10:24:13;100771.94;;;21.18;56.50
19811;BME280;10065;49.632;8.346;2023-05-23T10:26:42;100780.63;;;21.14;56.41
19811;BME280;10065;49.632;8.346;2023-05-23T10:29:11;100775.47;;;21.19;56.05
19811;BME280;10065;49.632;8.346;2023-05-23T10:31:46;100772.53;;;21.20;56.32
19811;BME280;10065;49.632;8.346;2023-05-23T10:34:19;100776.91;;;21.21;56.69
19811;BME280;10065;49.632;8.346;2023-05-23T10:36:56;100777.75;;;21.28;56.54
19811;BME280;10065;49.632;8.346;2023-05-23T10:39:32;100778.94;;;21.39;56.15
19811;BME280;10065;49.632;8.346;2023-05-23T10:42:06;100770.41;;;21.49;55.82
19811;BME280;10065;49.632;8.346;2023-05-23T10:44:36;100765.84;;;21.49;56.03
19811;BME280;10065;49.632;8.346;2023-05-23T10:47:05;100770.63;;;21.54;55.74
19811;BME280;10065;49.632;8.346;2023-05-23T10:49:36;100775.97;;;21.67;55.56
19811;BME280;10065;49.632;8.346;2023-05-23T10:52:05;100776.50;;;21.82;54.86
19811;BME280;10065;49.632;8.346;2023-05-23T10:54:34;100772.09;;;22.01;54.77
19811;BME280;10065;49.632;8.346;2023-05-23T10:57:03;100772.31;;;22.37;53.93
19811;BME280;10065;49.632;8.346;2023-05-23T10:59:31;100764.19;;;22.69;53.14
19811;BME280;10065;49.632;8.346;2023-05-23T11:01:59;100764.78;;;22.96;51.65
19811;BME280;10065;49.632;8.346;2023-05-23T11:04:29;100761.03;;;22.97;51.53
19811;BME280;10065;49.632;8.346;2023-05-23T11:06:57;100763.28;;;22.81;51.93
19811;BME280;10065;49.632;8.346;2023-05-23T11:09:25;100767.53;;;22.64;52.00
19811;BME280;10065;49.632;8.346;2023-05-23T11:11:54;100773.06;;;22.51;52.32
19811;BME280;10065;49.632;8.346;2023-05-23T11:14:51;100771.88;;;22.40;52.41
19811;BME280;10065;49.632;8.346;2023-05-23T11:17:32;100779.84;;;22.29;52.99
19811;BME280;10065;49.632;8.346;2023-05-23T11:20:04;100788.81;;;22.23;53.55
19811;BME280;10065;49.632;8.346;2023-05-23T11:22:33;100783.22;;;22.18;53.43
19811;BME280;10065;49.632;8.346;2023-05-23T11:25:05;100781.19;;;22.13;53.62
19811;BME280;10065;49.632;8.346;2023-05-23T11:27:35;100786.00;;;22.04;53.84
19811;BME280;10065;49.632;8.346;2023-05-23T11:30:06;100784.34;;;22.03;53.78
19811;BME280;10065;49.632;8.346;2023-05-23T11:32:35;100789.34;;;22.06;53.89
19811;BME280;10065;49.632;8.346;2023-05-23T11:35:06;100789.53;;;22.05;53.91
19811;BME280;10065;49.632;8.346;2023-05-23T11:37:37;100788.75;;;21.98;53.82
19811;BME280;10065;49.632;8.346;2023-05-23T11:40:25;100795.38;;;21.95;54.16
19811;BME280;10065;49.632;8.346;2023-05-23T11:42:53;100794.97;;;21.98;54.40
19811;BME280;10065;49.632;8.346;2023-05-23T11:45:22;100789.75;;;21.97;54.39
19811;BME280;10065;49.632;8.346;2023-05-23T11:47:50;100795.16;;;21.97;54.64
19811;BME280;10065;49.632;8.346;2023-05-23T11:50:19;100794.75;;;21.93;54.76
19811;BME280;10065;49.632;8.346;2023-05-23T11:52:47;100790.84;;;21.89;54.61
19811;BME280;10065;49.632;8.346;2023-05-23T11:55:18;100796.63;;;21.93;54.59
19811;BME280;10065;49.632;8.346;2023-05-23T11:57:47;100787.91;;;21.97;54.48
19811;BME280;10065;49.632;8.346;2023-05-23T12:00:15;100789.97;;;21.95;54.85
19811;BME280;10065;49.632;8.346;2023-05-23T12:02:44;100789.13;;;22.01;54.79
19811;BME280;10065;49.632;8.346;2023-05-23T12:05:14;100793.06;;;22.05;54.68
19811;BME280;10065;49.632;8.346;2023-05-23T12:07:44;100784.72;;;22.13;54.58
19811;BME280;10065;49.632;8.346;2023-05-23T12:10:13;100782.81;;;22.21;54.13
19811;BME280;10065;49.632;8.346;2023-05-23T12:12:42;100789.44;;;22.25;53.98
19811;BME280;10065;49.632;8.346;2023-05-23T12:15:11;100785.03;;;22.30;53.97
19811;BME280;10065;49.632;8.346;2023-05-23T12:17:43;100786.03;;;22.36;53.84
19811;BME280;10065;49.632;8.346;2023-05-23T12:20:11;100792.41;;;22.48;54.13
19811;BME280;10065;49.632;8.346;2023-05-23T12:22:40;100783.00;;;22.57;53.52
19811;BME280;10065;49.632;8.346;2023-05-23T12:25:10;100780.91;;;22.52;53.41
19811;BME280;10065;49.632;8.346;2023-05-23T12:27:39;100786.25;;;22.66;53.30
19811;BME280;10065;49.632;8.346;2023-05-23T12:30:12;100785.56;;;22.70;53.22
19811;BME280;10065;49.632;8.346;2023-05-23T12:32:41;100791.81;;;22.77;53.01
19811;BME280;10065;49.632;8.346;2023-05-23T12:35:10;100787.00;;;22.79;53.00
19811;BME280;10065;49.632;8.346;2023-05-23T12:37:39;100793.25;;;22.73;53.12
19811;BME280;10065;49.632;8.346;2023-05-23T12:40:11;100792.84;;;22.76;52.74
19811;BME280;10065;49.632;8.346;2023-05-23T12:42:48;100788.91;;;22.72;53.06
19811;BME280;10065;49.632;8.346;2023-05-23T12:45:17;100790.22;;;22.63;53.01
19811;BME280;10065;49.632;8.346;2023-05-23T12:47:45;100783.59;;;22.59;53.00
19811;BME280;10065;49.632;8.346;2023-05-23T12:50:12;100790.41;;;22.62;53.37
19811;BME280;10065;49.632;8.346;2023-05-23T12:52:40;100789.84;;;22.60;53.37
19811;BME280;10065;49.632;8.346;2023-05-23T12:55:09;100787.84;;;22.73;53.23
19811;BME280;10065;49.632;8.346;2023-05-23T12:57:37;100780.56;;;22.74;52.91
19811;BME280;10065;49.632;8.346;2023-05-23T13:00:06;100778.72;;;22.74;52.54
19811;BME280;10065;49.632;8.346;2023-05-23T13:02:34;100779.91;;;22.78;52.53
19811;BME280;10065;49.632;8.346;2023-05-23T13:05:03;100776.19;;;22.79;52.08
19811;BME280;10065;49.632;8.346;2023-05-23T13:07:31;100782.63;;;22.78;52.05